Time;durP1;ratioP1;P1;durP2;ratioP2;P2;SDS_P1;SDS_P2;PMS_P1;PMS_P2;Temp;Humidity;BMP_temperature;BMP_pressure;BME280_temperature;BME280_humidity;BME280_pressure;Samples;Min_cycle;Max_cycle;Signal;HPM_P1;HPM_P2
2022/06/04 00:02:07;;;;;;;7.88;4.72;;;21.10;52.70;;;;;;5010521;28;20080;-68
2022/06/04 00:04:32;;;;;;;7.68;4.22;;;21.10;52.70;;;;;;5012214;28;20030;-68
2022/06/04 00:06:58;;;;;;;7.70;4.70;;;21.10;52.80;;;;;;5010996;28;20032;-68
2022/06/04 00:09:25;;;;;;;8.15;4.70;;;21.10;52.70;;;;;;5011803;28;20025;-68
2022/06/04 00:17:38;;;;;;;8.75;4.80;;;21.10;52.80;;;;;;4969348;28;20046;-68
2022/06/04 00:20:05;;;;;;;7.63;4.60;;;21.10;52.90;;;;;;4998478;28;20132;-68
2022/06/04 00:22:31;;;;;;;7.65;4.00;;;21.10;52.90;;;;;;5010597;28;20037;-68
2022/06/04 00:24:56;;;;;;;6.40;4.07;;;21.10;52.90;;;;;;5011744;28;20275;-67
2022/06/04 00:27:22;;;;;;;8.77;4.78;;;21.10;52.90;;;;;;5010306;28;20053;-67
2022/06/04 00:29:48;;;;;;;8.27;4.60;;;21.10;52.90;;;;;;5010522;28;20037;-67
2022/06/04 00:32:14;;;;;;;7.20;4.43;;;21.10;52.90;;;;;;5011450;28;20037;-67
2022/06/04 00:34:40;;;;;;;7.65;4.47;;;21.10;53.00;;;;;;4992658;28;20550;-68
2022/06/04 00:37:06;;;;;;;7.80;4.53;;;21.10;52.90;;;;;;5011443;28;20398;-68
2022/06/04 00:39:32;;;;;;;8.35;4.45;;;21.10;53.00;;;;;;5010326;28;20057;-68
2022/06/04 00:42:20;;;;;;;7.13;4.47;;;21.10;53.00;;;;;;4994138;28;20033;-68
2022/06/04 00:45:07;;;;;;;6.38;4.10;;;21.10;53.10;;;;;;5010529;28;20583;-68
2022/06/04 00:47:35;;;;;;;8.05;4.50;;;21.10;53.00;;;;;;5009253;28;20418;-68
2022/06/04 00:50:04;;;;;;;7.85;4.35;;;21.10;53.00;;;;;;5011158;28;20458;-68
2022/06/04 00:52:30;;;;;;;5.70;3.58;;;21.10;53.00;;;;;;5010164;28;20085;-67
2022/06/04 00:54:57;;;;;;;6.85;4.30;;;21.10;53.10;;;;;;5010182;28;20028;-68
2022/06/04 00:57:50;;;;;;;7.78;4.65;;;21.10;53.00;;;;;;5011236;28;20051;-68
2022/06/04 01:00:18;;;;;;;7.88;4.70;;;21.10;53.00;;;;;;4993839;28;20040;-68
2022/06/04 01:02:50;;;;;;;7.68;4.53;;;21.10;53.00;;;;;;5011417;28;20096;-69
2022/06/04 01:05:47;;;;;;;7.82;4.20;;;21.10;53.00;;;;;;5009437;28;20475;-68
2022/06/04 01:08:34;;;;;;;7.28;4.13;;;21.10;53.00;;;;;;5010816;28;20034;-68
2022/06/04 01:11:21;;;;;;;8.80;4.55;;;21.10;53.00;;;;;;5011052;28;20088;-68
2022/06/04 01:14:52;;;;;;;6.93;4.32;;;21.10;53.00;;;;;;5010836;28;20022;-68
2022/06/04 01:17:36;;;;;;;7.60;4.13;;;21.10;53.10;;;;;;4972533;28;20550;-68
2022/06/04 01:20:38;;;;;;;8.75;4.50;;;21.10;53.00;;;;;;5009955;28;20467;-67
2022/06/04 01:23:28;;;;;;;8.68;4.20;;;21.10;53.10;;;;;;5010993;28;20076;-68
2022/06/04 01:26:06;;;;;;;7.07;4.22;;;21.10;53.10;;;;;;5015023;28;20034;-68
2022/06/04 01:28:38;;;;;;;6.68;4.28;;;21.10;53.10;;;;;;5014869;28;20029;-68
2022/06/04 01:31:07;;;;;;;7.57;4.18;;;21.10;53.20;;;;;;5014579;28;20066;-68
2022/06/04 01:33:41;;;;;;;7.28;4.18;;;21.10;53.30;;;;;;5015074;28;20022;-68
2022/06/04 01:36:17;;;;;;;6.53;4.03;;;21.10;53.20;;;;;;5013654;28;20509;-68
2022/06/04 01:38:46;;;;;;;8.82;4.57;;;21.10;53.30;;;;;;5012517;28;20022;-68
2022/06/04 01:41:12;;;;;;;;;;;21.10;53.20;;;;;;5014850;28;20561;-67
2022/06/04 01:43:47;;;;;;;7.32;4.32;;;21.00;53.20;;;;;;5013360;28;20009;-68
2022/06/04 01:46:30;;;;;;;6.35;4.10;;;21.10;53.30;;;;;;4997316;28;20087;-68
2022/06/04 01:49:10;;;;;;;6.53;3.88;;;21.10;53.20;;;;;;5013210;28;20479;-68
2022/06/04 01:51:36;;;;;;;6.53;3.88;;;21.10;53.30;;;;;;5014450;28;20029;-68
2022/06/04 01:54:08;;;;;;;6.38;4.03;;;21.00;53.30;;;;;;5012483;28;20116;-67
2022/06/04 01:56:47;;;;;;;5.97;4.00;;;21.10;53.40;;;;;;5014327;28;20084;-68
2022/06/04 01:59:27;;;;;;;7.93;4.55;;;21.00;53.30;;;;;;5012924;28;20025;-68
2022/06/04 02:01:57;;;;;;;8.05;4.43;;;21.10;53.30;;;;;;5010077;28;20046;-67
2022/06/04 02:04:25;;;;;;;;;;;21.10;53.30;;;;;;5013412;28;20121;-68
2022/06/04 02:07:37;;;;;;;6.85;4.18;;;21.10;53.20;;;;;;5013118;28;19910;-67
2022/06/04 02:09:49;;;;;;;7.70;4.07;;;21.10;53.20;;;;;;5016026;28;20411;-68
2022/06/04 02:12:15;;;;;;;6.82;3.83;;;21.10;53.20;;;;;;5013119;28;20209;-68
2022/06/04 02:14:43;;;;;;;6.55;4.03;;;21.10;53.20;;;;;;5012580;28;20491;-68
2022/06/04 02:17:16;;;;;;;7.18;4.03;;;21.10;53.30;;;;;;5014632;28;20386;-68
2022/06/04 02:19:42;;;;;;;7.72;4.10;;;21.10;53.20;;;;;;5013655;28;20487;-68
2022/06/04 02:22:09;;;;;;;6.78;3.67;;;21.10;53.20;;;;;;5013015;28;20103;-68
2022/06/04 02:24:36;;;;;;;6.60;3.97;;;21.10;53.20;;;;;;5013816;28;20064;-68
2022/06/04 02:27:04;;;;;;;6.72;3.90;;;21.10;53.30;;;;;;4995827;28;20176;-68
2022/06/04 02:29:30;;;;;;;7.25;3.75;;;21.10;53.30;;;;;;5006030;28;20037;-69
2022/06/04 02:32:21;;;;;;;8.40;4.35;;;21.10;53.30;;;;;;4995392;28;20037;-68
2022/06/04 02:34:50;;;;;;;6.85;4.25;;;21.10;53.30;;;;;;5013300;28;20022;-67
2022/06/04 02:37:40;;;;;;;8.10;4.35;;;21.10;53.40;;;;;;4996296;28;20034;-68
2022/06/04 02:40:38;;;;;;;7.45;4.30;;;21.00;53.40;;;;;;5012452;28;20471;-68
2022/06/04 02:43:19;;;;;;;7.78;4.13;;;21.10;53.40;;;;;;5004713;28;20046;-68
2022/06/04 02:45:52;;;;;;;6.05;4.03;;;21.00;53.30;;;;;;5010507;28;20036;-68
2022/06/04 02:48:28;;;;;;;6.28;4.07;;;21.10;53.40;;;;;;4993796;28;20350;-68
2022/06/04 02:51:07;;;;;;;6.85;3.95;;;21.10;53.40;;;;;;4976661;28;20399;-68
2022/06/04 02:53:34;;;;;;;7.05;3.90;;;21.10;53.50;;;;;;4993970;28;20097;-68
2022/06/04 02:56:06;;;;;;;7.90;3.92;;;21.00;53.40;;;;;;4993613;28;20034;-68
2022/06/04 02:58:33;;;;;;;6.15;3.58;;;21.10;53.40;;;;;;4992239;28;20030;-68
2022/06/04 03:01:01;;;;;;;7.35;3.90;;;21.10;53.50;;;;;;5002521;28;20037;-68
2022/06/04 03:03:27;;;;;;;8.23;4.35;;;21.00;53.40;;;;;;5011604;28;20084;-68
2022/06/04 03:05:56;;;;;;;6.15;3.97;;;21.10;54.00;;;;;;5012996;28;20133;-68
2022/06/04 03:08:23;;;;;;;7.25;4.07;;;21.00;53.40;;;;;;5012824;28;20037;-68
2022/06/04 03:10:50;;;;;;;5.72;3.70;;;21.00;53.40;;;;;;5012968;28;20489;-68
2022/06/04 03:13:16;;;;;;;8.63;4.13;;;21.10;53.50;;;;;;5012718;28;20461;-68
2022/06/04 03:15:42;;;;;;;7.10;3.97;;;21.10;53.40;;;;;;5011533;28;20025;-68
2022/06/04 03:18:07;;;;;;;7.13;4.05;;;21.10;53.30;;;;;;5009419;28;20410;-68
2022/06/04 03:20:33;;;;;;;5.70;3.58;;;21.10;53.50;;;;;;5007377;28;20022;-68
2022/06/04 03:22:59;;;;;;;6.03;3.58;;;21.10;53.30;;;;;;5013201;28;20026;-68
2022/06/04 03:25:25;;;;;;;7.30;4.00;;;21.10;53.40;;;;;;4978688;28;20038;-68
2022/06/04 03:27:53;;;;;;;5.47;3.53;;;21.10;53.40;;;;;;5012440;28;20375;-68
2022/06/04 03:30:19;;;;;;;5.85;3.92;;;21.10;53.40;;;;;;5012634;28;20032;-68
2022/06/04 03:32:45;;;;;;;6.10;3.80;;;21.10;53.40;;;;;;4995292;28;20036;-68
2022/06/04 03:35:13;;;;;;;7.80;4.28;;;21.10;53.40;;;;;;5009329;28;20038;-68
2022/06/04 03:37:39;;;;;;;5.72;3.75;;;21.10;53.50;;;;;;5010821;28;20506;-68
2022/06/04 03:40:07;;;;;;;5.85;3.67;;;21.00;53.40;;;;;;5012195;28;20030;-68
2022/06/04 03:42:32;;;;;;;5.15;3.40;;;21.00;53.50;;;;;;5012504;28;20034;-68
2022/06/04 03:44:58;;;;;;;7.28;4.05;;;21.00;53.50;;;;;;5012141;28;20136;-67
2022/06/04 03:47:25;;;;;;;6.07;3.67;;;21.00;53.60;;;;;;5012021;28;20053;-68
2022/06/04 03:49:51;;;;;;;7.15;3.60;;;21.00;53.60;;;;;;5012198;28;20108;-68
2022/06/04 03:52:17;;;;;;;6.20;3.83;;;21.00;53.50;;;;;;5010582;28;20108;-68
2022/06/04 03:54:53;;;;;;;6.10;3.47;;;21.00;53.50;;;;;;5011994;28;20076;-68
2022/06/04 03:57:48;;;;;;;5.78;3.78;;;21.00;53.50;;;;;;4994666;28;20562;-68
2022/06/04 04:00:19;;;;;;;5.97;3.47;;;21.00;53.50;;;;;;5010661;28;20037;-68
2022/06/04 04:02:50;;;;;;;6.93;3.63;;;21.10;53.60;;;;;;5012417;28;20032;-68
2022/06/04 04:05:22;;;;;;;5.57;3.60;;;21.10;53.60;;;;;;5010707;28;20414;-69
2022/06/04 04:07:49;;;;;;;6.95;3.88;;;21.00;53.50;;;;;;5009135;28;20383;-68
2022/06/04 04:10:16;;;;;;;6.28;3.60;;;21.00;53.70;;;;;;5010208;28;20037;-68
2022/06/04 04:12:42;;;;;;;6.78;4.07;;;21.00;53.60;;;;;;5012080;28;20034;-68
2022/06/04 04:15:10;;;;;;;7.90;4.03;;;21.00;53.60;;;;;;5012003;28;20061;-68
2022/06/04 04:17:37;;;;;;;5.90;3.47;;;21.00;53.60;;;;;;5010772;28;20068;-68
2022/06/04 04:20:09;;;;;;;7.18;3.80;;;21.00;53.50;;;;;;5010528;28;20537;-68
2022/06/04 04:22:36;;;;;;;6.28;3.67;;;21.10;53.60;;;;;;5011872;28;20037;-68
2022/06/04 04:25:04;;;;;;;6.70;4.00;;;21.10;53.50;;;;;;5008586;28;20437;-68
2022/06/04 04:27:29;;;;;;;6.32;3.65;;;21.10;53.50;;;;;;5009540;28;20396;-68
2022/06/04 04:29:55;;;;;;;6.45;3.70;;;21.00;53.50;;;;;;5011637;28;20104;-68
2022/06/04 04:32:21;;;;;;;5.72;3.47;;;21.10;53.50;;;;;;5011427;28;20029;-68
2022/06/04 04:34:47;;;;;;;5.45;3.72;;;21.10;54.10;;;;;;5010895;28;20044;-68
2022/06/04 04:37:13;;;;;;;5.80;3.53;;;21.10;53.50;;;;;;5011592;28;20378;-68
2022/06/04 04:39:39;;;;;;;5.93;3.72;;;21.10;53.60;;;;;;5011903;28;20084;-68
2022/06/04 04:42:05;;;;;;;6.35;3.90;;;21.00;53.50;;;;;;5009407;28;20072;-68
2022/06/04 04:44:31;;;;;;;5.65;3.40;;;21.10;53.60;;;;;;5011403;28;20029;-68
2022/06/04 04:46:57;;;;;;;5.88;3.08;;;21.00;53.60;;;;;;5011523;28;20475;-68
2022/06/04 04:49:23;;;;;;;6.50;3.80;;;21.00;53.60;;;;;;5009996;28;20037;-68
2022/06/04 04:51:49;;;;;;;7.13;3.90;;;21.00;53.60;;;;;;4992818;28;20026;-68
2022/06/04 04:54:15;;;;;;;6.47;3.78;;;21.00;53.60;;;;;;4993592;28;20045;-68
2022/06/04 04:56:41;;;;;;;5.18;3.35;;;21.00;53.70;;;;;;5009991;28;20026;-68
2022/06/04 04:59:08;;;;;;;5.45;3.70;;;21.00;53.60;;;;;;5010031;28;20104;-68
2022/06/04 05:01:34;;;;;;;6.72;3.70;;;21.00;53.70;;;;;;4993766;28;20089;-68
2022/06/04 05:04:00;;;;;;;4.90;3.65;;;21.00;53.60;;;;;;5011336;28;20038;-68
2022/06/04 05:06:26;;;;;;;6.28;3.58;;;21.00;53.60;;;;;;5010078;28;20028;-68
2022/06/04 05:08:54;;;;;;;5.55;3.30;;;21.00;53.60;;;;;;5011329;28;20029;-68
2022/06/04 05:11:29;;;;;;;7.72;3.80;;;21.10;53.70;;;;;;5011078;28;20034;-68
2022/06/04 05:13:56;;;;;;;6.70;3.65;;;21.00;53.60;;;;;;5011413;28;20029;-68
2022/06/04 05:16:26;;;;;;;5.13;3.42;;;21.00;53.70;;;;;;5010941;28;20182;-68
2022/06/04 05:18:51;;;;;;;5.72;3.58;;;21.00;53.60;;;;;;5009826;28;20132;-68
2022/06/04 05:21:21;;;;;;;7.18;3.88;;;21.00;53.70;;;;;;5011295;28;20495;-68
2022/06/04 05:23:49;;;;;;;5.80;3.50;;;21.10;53.70;;;;;;5009414;28;20513;-68
2022/06/04 05:26:16;;;;;;;5.35;3.55;;;21.00;53.70;;;;;;5010675;28;20036;-68
2022/06/04 05:28:42;;;;;;;6.30;3.50;;;21.10;53.70;;;;;;5010814;28;20033;-68
2022/06/04 05:31:10;;;;;;;6.32;3.42;;;21.10;53.70;;;;;;4993184;28;20034;-68
2022/06/04 05:33:36;;;;;;;4.97;3.28;;;21.10;53.60;;;;;;5009951;28;20521;-68
2022/06/04 05:36:03;;;;;;;5.70;3.50;;;21.10;53.60;;;;;;5009884;28;20057;-68
2022/06/04 05:38:34;;;;;;;6.18;3.25;;;21.10;53.50;;;;;;5010714;28;20030;-68
2022/06/04 05:41:02;;;;;;;4.40;3.10;;;21.10;53.50;;;;;;5008813;28;20506;-68
2022/06/04 05:43:29;;;;;;;5.47;3.47;;;21.10;53.60;;;;;;5010768;28;20391;-68
2022/06/04 05:46:04;;;;;;;5.97;3.40;;;21.10;53.70;;;;;;4977301;28;20471;-68
2022/06/04 05:48:30;;;;;;;5.40;3.47;;;21.10;53.60;;;;;;5010647;28;20088;-68
2022/06/04 05:50:57;;;;;;;5.85;3.80;;;21.10;53.70;;;;;;5009388;28;20113;-68
2022/06/04 05:53:24;;;;;;;5.50;3.28;;;21.10;53.70;;;;;;5009496;28;20029;-68
2022/06/04 05:55:50;;;;;;;6.35;3.53;;;21.10;53.70;;;;;;4993136;28;20117;-68
2022/06/04 05:58:16;;;;;;;6.03;3.42;;;21.10;53.70;;;;;;5008237;28;20398;-68
2022/06/04 06:00:43;;;;;;;5.35;3.30;;;21.10;53.70;;;;;;5010755;28;20478;-68
2022/06/04 06:03:09;;;;;;;5.72;3.42;;;21.10;53.80;;;;;;5010807;28;20029;-68
2022/06/04 06:05:40;;;;;;;7.65;3.65;;;21.00;53.60;;;;;;5010697;28;20034;-68
2022/06/04 06:08:06;;;;;;;5.45;3.35;;;21.10;53.70;;;;;;5009442;28;20041;-68
2022/06/04 06:10:32;;;;;;;5.93;3.33;;;21.10;53.70;;;;;;5014181;28;20022;-68
2022/06/04 06:12:58;;;;;;;4.45;3.10;;;21.00;53.60;;;;;;4996720;28;20025;-68
2022/06/04 06:15:24;;;;;;;6.45;4.00;;;21.00;53.70;;;;;;5012865;28;20017;-68
2022/06/04 06:17:49;;;;;;;7.03;3.15;;;21.10;53.70;;;;;;5012593;28;20531;-68
2022/06/04 06:20:16;;;;;;;5.70;3.38;;;21.10;53.80;;;;;;5014002;28;20463;-68
2022/06/04 06:22:41;;;;;;;5.45;3.33;;;21.10;53.80;;;;;;4996593;28;20478;-68
2022/06/04 06:25:07;;;;;;;5.25;3.25;;;21.10;53.60;;;;;;5012573;28;20041;-68
2022/06/04 06:27:34;;;;;;;6.00;3.50;;;21.10;53.70;;;;;;5013662;28;20034;-68
2022/06/04 06:29:59;;;;;;;6.45;3.08;;;21.10;53.70;;;;;;5012584;28;20057;-68
2022/06/04 06:32:26;;;;;;;5.57;3.42;;;21.10;53.70;;;;;;5012810;28;20474;-68
2022/06/04 06:34:52;;;;;;;6.45;3.20;;;21.10;53.70;;;;;;5013809;28;20022;-68
2022/06/04 06:37:18;;;;;;;6.57;3.33;;;21.10;53.60;;;;;;5013375;28;20022;-68
2022/06/04 06:39:44;;;;;;;6.10;3.35;;;21.10;53.70;;;;;;5013861;28;20430;-68
2022/06/04 06:42:09;;;;;;;5.70;3.45;;;21.10;53.70;;;;;;5013491;28;20049;-68
2022/06/04 06:44:51;;;;;;;3.95;2.95;;;21.10;53.70;;;;;;5012471;28;20384;-68
2022/06/04 06:47:17;;;;;;;6.50;3.40;;;21.10;53.70;;;;;;5010981;28;20029;-68
2022/06/04 06:49:43;;;;;;;4.65;3.08;;;21.10;53.70;;;;;;5012362;28;20034;-67
2022/06/04 06:52:09;;;;;;;4.93;3.08;;;21.10;53.70;;;;;;5013128;28;20037;-68
2022/06/04 06:54:37;;;;;;;4.65;3.05;;;21.10;53.70;;;;;;5012342;28;20030;-68
2022/06/04 06:57:05;;;;;;;5.63;3.38;;;21.10;53.70;;;;;;5011986;28;20522;-68
2022/06/04 06:59:31;;;;;;;4.95;3.38;;;21.10;53.80;;;;;;5013189;28;20018;-68
2022/06/04 07:01:58;;;;;;;4.68;3.30;;;21.10;53.80;;;;;;5011980;28;20057;-68
2022/06/04 07:04:28;;;;;;;5.53;3.35;;;21.10;53.80;;;;;;5011278;28;20028;-68
2022/06/04 07:07:00;;;;;;;4.65;3.10;;;21.10;54.40;;;;;;5011672;28;20069;-68
2022/06/04 07:09:29;;;;;;;5.25;3.55;;;21.10;53.80;;;;;;5011677;28;20080;-69
2022/06/04 07:11:56;;;;;;;5.03;3.30;;;21.10;53.80;;;;;;5011754;28;20033;-68
2022/06/04 07:14:25;;;;;;;5.53;3.30;;;21.10;53.80;;;;;;5011307;28;20026;-68
2022/06/04 07:16:53;;;;;;;5.07;3.20;;;21.10;53.80;;;;;;5012742;28;20398;-68
2022/06/04 07:19:21;;;;;;;5.00;3.03;;;21.10;53.90;;;;;;5012794;28;20374;-68
2022/06/04 07:21:47;;;;;;;5.30;3.15;;;21.10;53.80;;;;;;5011664;28;20495;-68
2022/06/04 07:24:13;;;;;;;6.20;3.17;;;21.10;53.90;;;;;;5011713;28;20041;-68
2022/06/04 07:26:40;;;;;;;4.57;3.05;;;21.10;53.80;;;;;;5011869;28;20519;-68
2022/06/04 07:29:07;;;;;;;4.60;2.70;;;21.10;53.80;;;;;;5012277;28;20169;-68
2022/06/04 07:31:33;;;;;;;4.65;3.22;;;21.10;53.90;;;;;;5012536;28;20225;-68
2022/06/04 07:34:00;;;;;;;5.95;3.63;;;21.10;53.90;;;;;;5012683;28;20105;-68
2022/06/04 07:36:29;;;;;;;4.18;2.83;;;21.10;53.90;;;;;;5011565;28;20034;-68
2022/06/04 07:38:55;;;;;;;5.00;2.97;;;21.10;53.90;;;;;;5011367;28;20391;-68
2022/06/04 07:41:30;;;;;;;5.03;3.20;;;21.10;53.90;;;;;;5011378;28;20395;-68
2022/06/04 07:43:56;;;;;;;5.90;3.42;;;21.10;53.90;;;;;;5009826;28;20127;-68
2022/06/04 07:46:24;;;;;;;5.95;3.50;;;21.10;54.00;;;;;;4994888;28;20403;-68
2022/06/04 07:48:50;;;;;;;4.65;2.88;;;21.10;53.90;;;;;;5011060;28;20510;-68
2022/06/04 07:51:17;;;;;;;4.38;3.20;;;21.10;53.90;;;;;;5011174;28;20442;-68
2022/06/04 07:53:43;;;;;;;7.13;3.38;;;21.10;53.90;;;;;;5011114;28;20030;-68
2022/06/04 07:56:12;;;;;;;5.00;3.05;;;21.10;53.90;;;;;;5010787;28;20045;-68
2022/06/04 07:58:38;;;;;;;5.50;3.60;;;21.10;53.90;;;;;;5011912;28;20053;-68
2022/06/04 08:01:05;;;;;;;3.75;2.78;;;21.10;54.00;;;;;;5009996;28;20030;-68
2022/06/04 08:03:35;;;;;;;5.00;3.08;;;21.10;54.00;;;;;;5010815;28;20379;-68
2022/06/04 08:06:03;;;;;;;6.00;3.47;;;21.10;53.90;;;;;;5010784;28;20030;-69
2022/06/04 08:08:32;;;;;;;5.45;3.40;;;21.10;54.00;;;;;;5010813;28;20026;-68
2022/06/04 08:10:58;;;;;;;4.07;2.90;;;21.10;54.00;;;;;;5012049;28;20034;-68
2022/06/04 08:13:25;;;;;;;5.40;3.35;;;21.10;54.00;;;;;;5012449;28;20449;-68
2022/06/04 08:16:00;;;;;;;4.13;2.80;;;21.10;54.00;;;;;;5009864;28;20121;-69
2022/06/04 08:18:27;;;;;;;4.57;2.90;;;21.10;54.00;;;;;;5004953;28;20478;-69
2022/06/04 08:20:53;;;;;;;4.45;3.08;;;21.00;53.90;;;;;;5011826;28;20557;-68
2022/06/04 08:23:20;;;;;;;4.57;3.13;;;21.00;54.00;;;;;;5010884;28;20125;-68
2022/06/04 08:25:50;;;;;;;5.47;3.30;;;21.10;54.00;;;;;;5011795;28;20030;-68
2022/06/04 08:28:17;;;;;;;4.50;3.05;;;21.00;54.00;;;;;;5010383;28;20408;-68
2022/06/04 08:30:44;;;;;;;4.72;2.90;;;21.00;54.00;;;;;;5010271;28;20057;-68
2022/06/04 08:33:11;;;;;;;5.43;3.20;;;21.00;54.60;;;;;;5009235;28;20026;-68
2022/06/04 08:35:37;;;;;;;4.80;3.08;;;21.10;54.10;;;;;;5011577;28;20026;-68
2022/06/04 08:38:03;;;;;;;4.63;3.10;;;21.00;53.90;;;;;;5011404;28;20117;-68
2022/06/04 08:40:39;;;;;;;4.22;2.78;;;21.00;54.00;;;;;;5011303;28;20029;-68
2022/06/04 08:43:19;;;;;;;4.30;2.88;;;21.10;54.00;;;;;;5011746;28;20133;-68
2022/06/04 08:45:45;;;;;;;6.13;3.25;;;21.00;54.10;;;;;;5011276;28;20030;-68
2022/06/04 08:48:19;;;;;;;4.85;3.13;;;21.00;53.90;;;;;;5006773;28;20081;-68
2022/06/04 08:50:47;;;;;;;4.63;3.08;;;21.10;54.00;;;;;;5010195;28;20066;-68
2022/06/04 08:53:24;;;;;;;4.28;2.97;;;21.10;54.10;;;;;;5010479;28;20109;-68
2022/06/04 08:58:47;;;;;;;4.85;2.80;;;21.10;54.10;;;;;;5010996;28;20095;-68
2022/06/04 09:01:21;;;;;;;4.15;2.75;;;21.10;53.90;;;;;;5010831;28;20506;-68
2022/06/04 09:04:01;;;;;;;5.97;3.15;;;21.10;54.60;;;;;;5009558;28;20563;-68
2022/06/04 09:06:35;;;;;;;6.53;3.10;;;21.10;53.90;;;;;;5008073;28;20036;-68
2022/06/04 09:09:16;;;;;;;4.47;3.00;;;21.10;53.90;;;;;;5011071;28;20320;-68
2022/06/04 09:11:54;;;;;;;4.15;2.80;;;21.10;54.00;;;;;;5010996;28;20040;-68
2022/06/04 09:14:49;;;;;;;5.50;3.47;;;21.00;54.00;;;;;;5011379;28;20041;-68
2022/06/04 09:17:33;;;;;;;5.72;3.15;;;21.10;54.10;;;;;;5009707;28;20026;-68
2022/06/04 09:19:59;;;;;;;5.07;3.40;;;21.10;54.10;;;;;;5011034;28;20387;-68
2022/06/04 09:22:34;;;;;;;4.15;2.88;;;21.10;54.70;;;;;;5007322;28;20064;-68
2022/06/04 09:25:00;;;;;;;4.85;2.78;;;21.10;54.20;;;;;;5009934;28;20445;-69
2022/06/04 09:27:38;;;;;;;4.32;2.67;;;21.10;54.10;;;;;;4993433;28;20033;-68
2022/06/04 09:30:18;;;;;;;4.88;3.08;;;21.10;54.20;;;;;;5010224;28;20025;-69
2022/06/04 09:33:10;;;;;;;5.53;3.20;;;21.00;54.00;;;;;;5010695;28;20034;-68
2022/06/04 09:35:39;;;;;;;4.72;2.83;;;21.00;54.10;;;;;;5009841;28;20101;-68
2022/06/04 09:38:05;;;;;;;5.30;3.20;;;21.10;54.10;;;;;;5007622;28;20058;-68
2022/06/04 09:40:34;;;;;;;4.45;3.00;;;21.10;54.20;;;;;;5010677;28;20021;-68
2022/06/04 09:43:18;;;;;;;4.47;2.90;;;21.00;54.00;;;;;;5010971;28;20042;-68
2022/06/04 09:45:52;;;;;;;3.72;2.80;;;21.00;54.10;;;;;;5013472;28;20034;-68
2022/06/04 09:48:25;;;;;;;4.13;2.78;;;21.10;54.10;;;;;;5014610;28;20036;-69
2022/06/04 09:50:57;;;;;;;4.30;2.65;;;21.10;54.20;;;;;;5014498;28;20087;-68
2022/06/04 09:53:26;;;;;;;4.60;2.75;;;21.10;54.10;;;;;;5015100;28;20022;-68
2022/06/04 09:55:56;;;;;;;4.28;2.85;;;21.10;54.10;;;;;;5013607;28;20022;-68
2022/06/04 09:58:28;;;;;;;4.95;2.67;;;21.10;54.10;;;;;;5014303;28;20029;-68
2022/06/04 10:01:05;;;;;;;4.40;2.97;;;21.10;54.10;;;;;;5013263;28;20478;-68
2022/06/04 10:03:33;;;;;;;4.38;2.88;;;21.10;54.20;;;;;;5013458;28;20045;-68
2022/06/04 10:06:04;;;;;;;4.60;3.08;;;21.10;54.10;;;;;;5014298;28;20030;-68
2022/06/04 10:08:31;;;;;;;3.95;2.80;;;21.10;54.10;;;;;;5014221;28;20030;-68
2022/06/04 10:11:00;;;;;;;4.63;2.80;;;21.10;54.10;;;;;;5012196;28;20033;-68
2022/06/04 10:13:48;;;;;;;3.88;2.38;;;21.10;54.10;;;;;;5012913;28;20026;-68
2022/06/04 10:16:25;;;;;;;5.72;2.78;;;21.10;54.00;;;;;;5012780;28;20030;-67
2022/06/04 10:18:56;;;;;;;4.80;2.75;;;21.10;54.00;;;;;;5013992;28;20029;-67
2022/06/04 10:21:35;;;;;;;3.63;2.58;;;21.10;54.00;;;;;;5013941;28;20026;-68
2022/06/04 10:24:04;;;;;;;4.13;2.92;;;21.10;54.20;;;;;;5014279;28;20040;-67
2022/06/04 10:26:30;;;;;;;;;;;21.10;54.10;;;;;;5014231;28;20060;-67
2022/06/04 10:29:20;;;;;;;4.57;2.83;;;21.10;54.10;;;;;;5011769;28;20370;-68
2022/06/04 10:32:00;;;;;;;4.40;3.03;;;21.10;54.20;;;;;;5012259;28;20030;-68
2022/06/04 10:34:57;;;;;;;4.18;2.92;;;21.10;54.20;;;;;;5013259;28;20376;-68
2022/06/04 10:37:48;;;;;;;4.22;2.63;;;21.10;54.20;;;;;;5013781;28;20030;-68
2022/06/04 10:40:35;;;;;;;5.80;2.97;;;21.10;54.20;;;;;;5013759;28;20026;-68
2022/06/04 10:43:27;;;;;;;3.80;2.80;;;21.10;54.30;;;;;;5013976;28;20092;-67
2022/06/04 10:46:13;;;;;;;5.10;2.80;;;21.10;54.30;;;;;;5012516;28;20065;-68
2022/06/04 10:48:45;;;;;;;3.78;2.83;;;21.10;54.20;;;;;;5012807;28;20474;-68
2022/06/04 10:51:35;;;;;;;4.05;2.67;;;21.10;54.30;;;;;;5012906;28;20525;-68
2022/06/04 10:54:22;;;;;;;4.15;2.40;;;21.10;54.20;;;;;;5013528;28;20033;-68
2022/06/04 10:57:15;;;;;;;4.40;2.80;;;21.10;54.30;;;;;;5013200;28;20030;-68
2022/06/04 10:59:47;;;;;;;3.53;2.60;;;21.10;54.20;;;;;;5013422;28;20487;-68
2022/06/04 11:02:28;;;;;;;4.60;2.92;;;21.10;54.30;;;;;;5007171;28;20108;-67
2022/06/04 11:04:59;;;;;;;3.85;2.60;;;21.10;54.30;;;;;;5012569;28;20081;-67
2022/06/04 11:07:53;;;;;;;4.40;2.95;;;21.10;54.90;;;;;;5012855;28;20034;-68
2022/06/04 11:10:38;;;;;;;3.50;2.53;;;21.10;54.30;;;;;;5011842;28;20095;-67
2022/06/04 11:13:52;;;;;;;4.28;2.83;;;21.10;54.20;;;;;;4991786;28;20048;-67
2022/06/04 11:16:50;;;;;;;4.15;2.60;;;21.20;54.30;;;;;;4992216;28;20048;-69
2022/06/04 11:19:26;;;;;;;3.47;2.10;;;21.20;54.20;;;;;;5002252;28;20041;-67
2022/06/04 11:21:58;;;;;;;4.47;2.63;;;21.20;54.20;;;;;;5011429;28;20429;-67
2022/06/04 11:24:33;;;;;;;3.72;2.45;;;21.20;54.20;;;;;;5011573;28;20022;-67
2022/06/04 11:27:14;;;;;;;4.53;2.45;;;21.20;54.20;;;;;;5010449;28;20051;-67
2022/06/04 11:29:41;;;;;;;3.33;2.33;;;21.10;54.20;;;;;;5006977;28;20077;-68
2022/06/04 11:32:26;;;;;;;4.18;2.50;;;21.20;54.20;;;;;;5006014;23;20042;-69
2022/06/04 11:35:17;;;;;;;3.38;2.22;;;21.20;54.20;;;;;;4969138;28;20114;-69
2022/06/04 11:37:55;;;;;;;4.53;2.95;;;21.10;54.20;;;;;;4972924;28;20058;-69
2022/06/04 11:40:46;;;;;;;3.40;2.67;;;21.10;54.30;;;;;;4972375;28;20558;-69
2022/06/04 11:43:43;;;;;;;4.20;2.83;;;21.20;54.40;;;;;;4936810;29;20035;-68
2022/06/04 11:46:46;;;;;;;4.65;2.65;;;21.10;54.40;;;;;;4953400;28;20035;-68
2022/06/04 11:49:33;;;;;;;3.65;2.40;;;21.10;54.30;;;;;;4952533;29;20094;-69
2022/06/04 11:52:13;;;;;;;4.38;2.70;;;21.10;54.40;;;;;;4954008;28;20049;-68
2022/06/04 11:54:46;;;;;;;3.08;2.22;;;21.10;54.40;;;;;;4953941;28;20050;-70
2022/06/04 11:57:37;;;;;;;4.15;2.60;;;21.20;54.50;;;;;;4953848;28;20066;-69
2022/06/04 12:00:31;;;;;;;4.18;2.42;;;21.10;54.30;;;;;;4954289;28;20455;-68
2022/06/04 12:03:31;;;;;;;3.97;2.70;;;21.10;54.30;;;;;;4947196;29;20562;-68
2022/06/04 12:06:19;;;;;;;4.00;2.88;;;21.10;54.30;;;;;;4952461;28;20028;-69
2022/06/04 12:08:55;;;;;;;3.58;2.42;;;21.10;54.50;;;;;;4952382;29;20048;-68
2022/06/04 12:11:33;;;;;;;3.90;2.65;;;21.10;54.40;;;;;;4953630;28;20031;-68
2022/06/04 12:14:12;;;;;;;4.70;2.70;;;21.10;54.50;;;;;;4953844;28;20054;-68
2022/06/04 12:16:49;;;;;;;4.10;2.63;;;21.20;54.50;;;;;;4953492;28;20705;-68
2022/06/04 12:25:09;;;;;;;4.00;2.90;;;21.20;54.30;;;;;;4952965;29;20042;-68
2022/06/04 12:27:38;;;;;;;;;;;21.20;54.40;;;;;;4953540;28;20141;-68
2022/06/04 12:30:17;;;;;;;4.70;3.00;;;21.20;54.30;;;;;;4952445;28;19918;-68
2022/06/04 12:32:44;;;;;;;5.90;3.33;;;21.20;54.30;;;;;;4953032;28;20031;-69
2022/06/04 12:35:09;;;;;;;4.82;2.88;;;21.20;54.40;;;;;;4953501;28;20402;-68
2022/06/04 12:37:42;;;;;;;5.28;3.00;;;21.20;54.40;;;;;;4953036;28;20028;-69
2022/06/04 12:40:19;;;;;;;4.35;2.65;;;21.20;54.50;;;;;;4951692;28;20114;-68
2022/06/04 12:43:19;;;;;;;4.57;2.80;;;21.20;54.50;;;;;;4953252;28;20377;-67
2022/06/04 12:46:04;;;;;;;4.35;2.70;;;21.20;54.50;;;;;;4953278;28;20031;-68
2022/06/04 12:48:32;;;;;;;4.72;2.90;;;21.20;54.60;;;;;;4951858;29;20031;-68
2022/06/04 12:51:03;;;;;;;4.75;2.83;;;21.20;54.60;;;;;;4953049;28;20031;-68
2022/06/04 12:53:33;;;;;;;5.00;3.20;;;21.20;54.60;;;;;;4952151;29;20024;-68
2022/06/04 12:56:06;;;;;;;4.25;2.75;;;21.20;54.70;;;;;;4951192;28;20399;-68
2022/06/04 12:58:49;;;;;;;4.63;2.97;;;21.10;54.60;;;;;;4951566;29;20435;-68
2022/06/04 13:01:18;;;;;;;4.75;2.85;;;21.10;54.60;;;;;;4951983;29;20039;-68
2022/06/04 13:04:04;;;;;;;3.95;2.70;;;21.10;54.60;;;;;;4953203;28;20447;-68
2022/06/04 13:06:35;;;;;;;4.53;2.75;;;21.10;54.60;;;;;;4952164;29;20409;-68
2022/06/04 13:09:12;;;;;;;4.40;2.92;;;21.10;54.70;;;;;;4952911;28;20081;-68
2022/06/04 13:11:38;;;;;;;5.30;3.08;;;21.10;54.60;;;;;;4952093;28;20038;-68
2022/06/04 13:14:35;;;;;;;5.80;3.10;;;21.10;55.10;;;;;;4952757;29;20031;-68
2022/06/04 13:17:18;;;;;;;4.25;2.83;;;21.10;54.60;;;;;;4949689;28;20404;-69
2022/06/04 13:20:25;;;;;;;4.22;2.90;;;21.10;54.70;;;;;;4954468;28;20102;-68
2022/06/04 13:22:56;;;;;;;4.15;2.70;;;21.10;54.50;;;;;;4954565;29;20038;-69
2022/06/04 13:25:46;;;;;;;4.65;2.90;;;21.10;54.60;;;;;;4954433;29;20589;-69
2022/06/04 13:28:32;;;;;;;4.05;2.70;;;21.20;54.60;;;;;;4954550;29;20126;-70
2022/06/04 13:31:02;;;;;;;4.20;2.80;;;21.20;54.50;;;;;;4955592;28;20139;-69
2022/06/04 13:33:35;;;;;;;4.03;2.60;;;21.20;54.60;;;;;;4956740;28;20023;-69